Nearby METAR Reports

 

KSFO - San Francisco, California, USA
Distance from station: NNW 8km
Updated: Fri, 24-Nov-2017 5:56am PST
Partly cloudy
Partly cloudy
 Wind from WNW
Wind: WNW 9 mph , 15 km/h
Temperature: 57°F , 14°C
Dew Point: 55°F , 13°C
Humidity: 94%
Barometer: 30.09 inHg , 1019 hPa
Clouds: Partly cloudy
Visibility: 7 miles , 11 km
Cloud details: Few Clouds 200 ft
Partly cloudy 600 ft
Partly cloudy 20000 ft
2017/11/24 13:56 KSFO 241356Z 29008KT 7SM FEW002 SCT006 SCT200 14/13 A3009 RMK AO2 SLP187 VIS NW-N 2 T01390128
KSQL - San Carlos Airpo, California, USA
Distance from station: ESE 8km
Updated: Fri, 24-Nov-2017 6:55am PST
Clear
Clear
 Wind from calm
Wind: Calm
Temperature: 57°F , 14°C
Dew Point: 57°F , 14°C
Humidity: 100%
Barometer: 30.09 inHg , 1019 hPa
Clouds: Clear
Visibility: 10 miles , 16 km
2017/11/24 14:55 KSQL 241455Z AUTO 00000KT 10SM CLR 14/14 A3009 RMK AO2
 
KHAF - Half Moon Bay, California, USA
Distance from station: WSW 15km
Updated: Fri, 24-Nov-2017 6:55am PST
Mist, Overcast
Mist, Overcast
 Wind from N
Wind: N 5 mph , 7 km/h
Temperature: 55°F , 13°C
Dew Point: 55°F , 13°C
Humidity: 100%
Barometer: 30.07 inHg , 1018.3 hPa
Summary: Mist
Clouds: Overcast
Visibility: 3/4 mile , 5 km
Cloud details: Overcast 300 ft
2017/11/24 14:55 KHAF 241455Z AUTO 35004KT 3/4SM BR OVC003 13/13 A3007 RMK AO2
KOAK - Oakland, California, USA
Distance from station: NNE 21km
Updated: Fri, 24-Nov-2017 6:53am PST
Shallow fog, Mist, Partly cloudy
Shallow fog, Mist, Partly cloudy
 Wind from calm
Wind: Calm
Temperature: 52°F , 11°C
Dew Point: 52°F , 11°C
Humidity: 100%
Barometer: 30.10 inHg , 1019.3 hPa
Summary: Shallow fog, Mist
Clouds: Partly cloudy
Visibility: 1 1/2 miles , 2 km
Cloud details: Few Clouds 200 ft
Partly cloudy 20000 ft
2017/11/24 14:53 KOAK 241453Z 00000KT 1 1/2SM MIFG BR FEW002 SCT200 11/11 A3010 RMK AO2 TWR VIS 10 SLP193 VIS SE-NE 1/4 T01110111 53004 $
 
KPAO - Palo Alto, California, USA
Distance from station: ESE 21km
Updated: Fri, 24-Nov-2017 6:47am PST
Shallow fog, Partly cloudy
Shallow fog, Partly cloudy
 Wind from calm
Wind: Calm
Temperature: 54°F , 12°C
Dew Point: 50°F , 10°C
Humidity: 88%
Barometer: 30.10 inHg , 1019.3 hPa
Summary: Shallow Fog
Clouds: Partly cloudy
Visibility: 10 miles , 16 km
Cloud details: Partly cloudy 18000 ft
2017/11/24 14:47 KPAO 241447Z 00000KT 10SM MIFG SCT180 12/10 A3010
KHWD - Hayward, California, USA
Distance from station: NE 23km
Updated: Fri, 24-Nov-2017 6:54am PST
Few Clouds
Few Clouds
 Wind from NE
Wind: NE 3 mph , 6 km/h
Temperature: 55°F , 13°C
Dew Point: 52°F , 11°C
Humidity: 88%
Barometer: 30.10 inHg , 1019.3 hPa
Clouds: Few Clouds
Visibility: 9 miles , 14 km
Cloud details: Few Clouds 1000 ft
2017/11/24 14:54 KHWD 241454Z 05003KT 9SM FEW010 13/11 A3010 RMK AO2 SLP201 T01280106 53000
 
KNUQ - Moffett Nas/Mtn, California, USA
Distance from station: ESE 30km
Updated: Fri, 24-Nov-2017 6:56am PST
Clear
Clear
 Wind from WSW
Wind: WSW 3 mph , 6 km/h
Temperature: 57°F , 14°C
Dew Point: 57°F , 14°C
Humidity: 100%
Barometer: 30.10 inHg , 1019.3 hPa
Clouds: Clear
Visibility: 8 miles , 13 km
2017/11/24 14:56 KNUQ 241456Z 25003KT 8SM CLR 14/14 A3010 RMK AO2 SLP195 T01390139 52003
KSJC - San Jose, California, USA
Distance from station: ESE 42km
Updated: Fri, 24-Nov-2017 6:53am PST
Mist, Mostly cloudy
Mist, Mostly cloudy
 Wind from NW
Wind: NW 3 mph , 6 km/h
Temperature: 57°F , 14°C
Dew Point: 57°F , 14°C
Humidity: 100%
Barometer: 30.09 inHg , 1019 hPa
Summary: Mist
Clouds: Mostly cloudy
Visibility: 2 miles , 3 km
Cloud details: Few Clouds 100 ft
Partly cloudy 300 ft
Mostly cloudy 11000 ft
2017/11/24 14:53 KSJC 241453Z 32003KT 2SM BR FEW001 SCT003 BKN110 14/14 A3009 RMK AO2 SLP189 T01440144 50002
 
KLVK - Livermore, California, USA
Distance from station: ENE 49km
Updated: Fri, 24-Nov-2017 6:53am PST
Mist, Clear
Mist, Clear
 Wind from calm
Wind: Calm
Temperature: 54°F , 12°C
Dew Point: 54°F , 12°C
Humidity: 100%
Barometer: 30.09 inHg , 1019 hPa
Summary: Mist
Clouds: Clear
Visibility: 5 miles , 8 km
2017/11/24 14:53 KLVK 241453Z 00000KT 5SM BR CLR 12/12 A3009 RMK AO2 SLP189 T01220122 53003
KRHV - San Jose/Reid, California, USA
Distance from station: ESE 53km
Updated: Fri, 24-Nov-2017 6:47am PST

 Wind from calm
Wind: Calm
2017/11/24 14:47 KRHV 241447Z 00000KT 1 1/2 SM OVC005 15/14 A3008
 
KCCR - Concord, California, USA
Distance from station: NNE 56km
Updated: Fri, 24-Nov-2017 6:53am PST
Overcast
Overcast
 Wind from calm
Wind: Calm
Temperature: 57°F , 14°C
Dew Point: 55°F , 13°C
Humidity: 94%
Barometer: 30.10 inHg , 1019.3 hPa
Clouds: Overcast
Visibility: 1 10 miles , 16 km
Cloud details: Overcast 1300 ft
2017/11/24 14:53 KCCR 241453Z 00000KT 10SM OVC013 14/13 A3010 RMK AO2 SLP178 T01440128 53004
KDVO - Novato/Gnoss Fld, California, USA
Distance from station: NNW 70km
Updated: Fri, 24-Nov-2017 6:55am PST
Fog, Overcast
Fog, Overcast
 Wind from calm
Wind: Calm
Temperature: 52°F , 11°C
Dew Point: 52°F , 11°C
Humidity: 100%
Barometer: 30.10 inHg , 1019.3 hPa
Summary: Fog
Clouds: Overcast
Visibility: less than 1/4 mile , 2 km
Cloud details: Overcast 100 ft
2017/11/24 14:55 KDVO 241455Z AUTO 00000KT M1/4SM FG OVC001 11/11 A3010 RMK AO2
 
KAPC - Napa, California, USA
Distance from station: N 73km
Updated: Fri, 24-Nov-2017 6:54am PST
Overcast
Overcast
 Wind from calm
Wind: Calm
Temperature: 50°F , 10°C
Dew Point: 50°F , 10°C
Humidity: 100%
Barometer: 30.09 inHg , 1019 hPa
Clouds: Overcast
Visibility: 1/4 mile , 2 km
Cloud details: Overcast 100 ft
2017/11/24 14:54 KAPC 241454Z 00000KT 1/4SM VV001 10/10 A3009 RMK AO2 SLP182 T01000100 53004 $